createdAt,value
2017-09-06T00:00:27.835Z,75.60
2017-09-06T00:02:28.791Z,74.80
2017-09-06T00:04:29.759Z,76.20
2017-09-06T00:06:30.700Z,75.70
2017-09-06T00:08:31.656Z,76.00
2017-09-06T00:10:32.597Z,76.40
2017-09-06T00:12:33.548Z,76.40
2017-09-06T00:14:34.492Z,76.90
2017-09-06T00:16:35.451Z,77.50
2017-09-06T00:18:36.388Z,77.60
2017-09-06T00:20:37.351Z,78.60
2017-09-06T00:22:38.309Z,78.80
2017-09-06T00:24:39.262Z,79.20
2017-09-06T00:26:40.951Z,79.60
2017-09-06T00:28:41.903Z,79.40
2017-09-06T00:30:42.875Z,79.80
2017-09-06T00:32:43.828Z,80.20
2017-09-06T00:34:44.764Z,81.30
2017-09-06T00:36:45.732Z,81.70
2017-09-06T00:38:46.681Z,81.70
2017-09-06T00:40:47.650Z,82.00
2017-09-06T00:42:48.604Z,82.10
2017-09-06T00:44:49.777Z,82.10
2017-09-06T00:46:50.736Z,82.40
2017-09-06T00:48:51.680Z,81.90
2017-09-06T00:50:52.636Z,82.60
2017-09-06T00:52:53.603Z,82.90
2017-09-06T00:54:54.553Z,83.10
2017-09-06T00:56:55.512Z,83.10
2017-09-06T00:58:56.512Z,82.80
2017-09-06T01:00:57.467Z,83.80
2017-09-06T01:02:58.424Z,84.10
2017-09-06T01:04:59.389Z,84.20
2017-09-06T01:07:00.337Z,84.20
2017-09-06T01:09:01.312Z,84.40
2017-09-06T01:11:02.316Z,84.20
2017-09-06T01:13:03.266Z,84.60
2017-09-06T01:15:04.268Z,84.00
2017-09-06T01:17:05.221Z,84.10
2017-09-06T01:19:06.185Z,84.00
2017-09-06T01:21:07.156Z,84.30
2017-09-06T01:23:08.112Z,84.60
2017-09-06T01:25:09.072Z,84.30
2017-09-06T01:27:10.008Z,84.50
2017-09-06T01:29:10.976Z,85.30
2017-09-06T01:31:11.925Z,85.90
2017-09-06T01:33:12.872Z,86.10
2017-09-06T01:35:13.852Z,86.10
2017-09-06T01:37:14.814Z,86.40
2017-09-06T01:39:15.802Z,87.00
2017-09-06T01:41:16.768Z,86.60
2017-09-06T01:43:17.704Z,87.80
2017-09-06T01:45:18.655Z,88.00
2017-09-06T01:47:19.587Z,88.10
2017-09-06T01:49:20.536Z,88.70
2017-09-06T01:51:21.496Z,88.90
2017-09-06T01:53:22.511Z,89.40
2017-09-06T01:55:23.472Z,89.30
2017-09-06T01:57:24.444Z,89.70
2017-09-06T01:59:25.389Z,89.70
2017-09-06T02:01:26.358Z,89.70
2017-09-06T02:03:27.312Z,89.90
2017-09-06T02:05:28.292Z,89.60
2017-09-06T02:07:29.270Z,90.00
2017-09-06T02:09:30.206Z,89.80
2017-09-06T02:11:31.200Z,90.00
2017-09-06T02:13:32.172Z,90.10
2017-09-06T02:15:33.125Z,89.80
2017-09-06T02:17:34.107Z,90.10
2017-09-06T02:19:35.037Z,90.10
2017-09-06T02:21:35.977Z,90.00
2017-09-06T02:23:36.933Z,90.00
2017-09-06T02:25:37.877Z,90.00
2017-09-06T02:27:38.803Z,90.00
2017-09-06T02:29:39.762Z,89.20
2017-09-06T02:31:40.703Z,89.10
2017-09-06T02:33:41.635Z,89.30
2017-09-06T02:35:42.589Z,88.70
2017-09-06T02:37:43.529Z,89.10
2017-09-06T02:39:44.460Z,88.80
2017-09-06T02:41:45.388Z,89.10
2017-09-06T02:43:46.355Z,88.80
2017-09-06T02:45:47.321Z,89.00
2017-09-06T02:47:48.253Z,88.60
2017-09-06T02:49:49.217Z,89.80
2017-09-06T02:51:50.148Z,89.70
2017-09-06T02:53:51.096Z,89.70
2017-09-06T02:55:52.032Z,89.50
2017-09-06T02:57:52.972Z,90.00
2017-09-06T02:59:53.931Z,89.20
2017-09-06T03:01:54.877Z,89.10
2017-09-06T03:03:55.813Z,89.00
2017-09-06T03:05:56.748Z,88.70
2017-09-06T03:07:57.684Z,89.00
2017-09-06T03:09:58.623Z,89.30
2017-09-06T03:11:59.973Z,89.60
2017-09-06T03:14:00.901Z,89.40
2017-09-06T03:16:01.840Z,89.40
2017-09-06T03:18:02.771Z,89.70
2017-09-06T03:20:03.706Z,89.10
2017-09-06T03:22:04.660Z,89.40
2017-09-06T03:24:05.605Z,89.50
2017-09-06T03:26:06.547Z,89.50
2017-09-06T03:28:07.480Z,89.40
2017-09-06T03:30:08.430Z,89.60
2017-09-06T03:32:09.376Z,89.70
2017-09-06T03:34:10.313Z,89.10
2017-09-06T03:36:11.287Z,89.30
2017-09-06T03:38:12.220Z,89.30
2017-09-06T03:40:13.308Z,89.30
2017-09-06T03:42:14.252Z,89.50
2017-09-06T03:44:15.180Z,89.70
2017-09-06T03:46:16.131Z,89.30
2017-09-06T03:48:17.089Z,89.80
2017-09-06T03:50:18.015Z,89.50
2017-09-06T03:52:18.960Z,89.60
2017-09-06T03:54:19.891Z,90.00
2017-09-06T03:56:20.816Z,90.00
2017-09-06T03:58:21.749Z,90.00
2017-09-06T04:00:22.680Z,90.00
2017-09-06T04:02:23.612Z,90.00
2017-09-06T04:04:24.556Z,90.00
2017-09-06T04:06:25.488Z,90.00
2017-09-06T04:08:26.430Z,89.90
2017-09-06T04:10:27.391Z,89.90
2017-09-06T04:12:28.444Z,90.00
2017-09-06T04:14:29.436Z,90.20
2017-09-06T04:16:30.415Z,90.20
2017-09-06T04:18:31.357Z,90.10
2017-09-06T04:20:32.299Z,90.10
2017-09-06T04:22:33.245Z,89.90
2017-09-06T04:24:34.183Z,89.80
2017-09-06T04:26:35.117Z,89.90
2017-09-06T04:28:36.061Z,89.80
2017-09-06T04:30:36.997Z,89.80
2017-09-06T04:32:37.930Z,89.90
2017-09-06T04:34:38.889Z,89.80
2017-09-06T04:36:39.854Z,89.80
2017-09-06T04:38:40.814Z,89.80
2017-09-06T04:40:41.743Z,89.80
2017-09-06T04:42:42.687Z,89.80
2017-09-06T04:44:43.624Z,90.20
2017-09-06T04:46:44.561Z,89.40
2017-09-06T04:48:45.509Z,89.10
2017-09-06T04:50:46.432Z,88.90
2017-09-06T04:52:47.424Z,88.70
2017-09-06T04:54:48.399Z,89.20
2017-09-06T04:56:49.336Z,88.70
2017-09-06T04:58:50.265Z,88.60
2017-09-06T05:00:51.207Z,88.40
2017-09-06T05:02:52.137Z,87.80
2017-09-06T05:04:53.085Z,88.20
2017-09-06T05:06:54.088Z,88.10
2017-09-06T05:08:55.008Z,88.50
2017-09-06T05:10:55.961Z,88.70
2017-09-06T05:12:56.898Z,88.60
2017-09-06T05:14:57.854Z,88.50
2017-09-06T05:16:58.783Z,88.70
2017-09-06T05:18:59.704Z,88.80
2017-09-06T05:21:00.782Z,88.50
2017-09-06T05:23:01.856Z,88.10
2017-09-06T05:25:02.820Z,88.10
2017-09-06T05:27:03.753Z,88.00
2017-09-06T05:29:04.764Z,87.70
2017-09-06T05:31:05.753Z,87.20
2017-09-06T05:33:06.688Z,86.80
2017-09-06T05:35:07.639Z,86.80
2017-09-06T05:37:08.573Z,86.80
2017-09-06T05:39:09.505Z,86.40
2017-09-06T05:41:10.444Z,86.10
2017-09-06T05:43:11.377Z,86.10
2017-09-06T05:45:12.314Z,85.60
2017-09-06T05:47:13.254Z,86.20
2017-09-06T05:49:14.544Z,86.80
2017-09-06T05:51:15.492Z,86.50
2017-09-06T05:53:16.423Z,86.70
2017-09-06T05:55:17.498Z,86.60
2017-09-06T05:57:18.436Z,86.50
2017-09-06T05:59:19.361Z,86.50
2017-09-06T06:01:20.314Z,86.00
2017-09-06T06:03:21.271Z,86.10
2017-09-06T06:05:22.213Z,86.60
2017-09-06T06:07:23.162Z,85.80
2017-09-06T06:09:24.105Z,86.60
2017-09-06T06:11:25.060Z,87.00
2017-09-06T06:13:26.007Z,85.70
2017-09-06T06:15:26.937Z,85.50
2017-09-06T06:17:27.886Z,86.20
2017-09-06T06:19:28.817Z,86.40
2017-09-06T06:21:29.752Z,84.60
2017-09-06T06:23:30.696Z,82.10
2017-09-06T06:25:31.631Z,83.70
2017-09-06T06:27:32.557Z,83.10
2017-09-06T06:29:33.496Z,82.10
2017-09-06T06:31:34.430Z,83.00
2017-09-06T06:33:35.371Z,84.30
2017-09-06T06:35:36.324Z,81.60
2017-09-06T06:37:37.257Z,81.20
2017-09-06T06:39:45.296Z,81.80
2017-09-06T06:41:46.227Z,83.80
2017-09-06T06:43:47.164Z,80.20
2017-09-06T06:45:48.246Z,83.80
2017-09-06T06:47:49.169Z,80.10
2017-09-06T06:49:50.101Z,81.10
2017-09-06T06:52:00.361Z,82.40
2017-09-06T06:54:09.546Z,79.30
2017-09-06T06:56:10.477Z,79.80
2017-09-06T06:58:11.405Z,79.70
2017-09-06T07:00:12.389Z,83.00
2017-09-06T07:02:13.328Z,82.50
2017-09-06T07:04:14.248Z,83.60
2017-09-06T07:06:15.228Z,82.30
2017-09-06T07:08:16.181Z,82.60
2017-09-06T07:10:17.125Z,82.90
2017-09-06T07:12:18.220Z,83.60
2017-09-06T07:14:19.193Z,80.90
2017-09-06T07:16:20.152Z,79.30
2017-09-06T07:18:21.072Z,81.30
2017-09-06T07:20:22.561Z,80.40
2017-09-06T07:22:23.517Z,80.10
2017-09-06T07:24:24.435Z,77.20
2017-09-06T07:26:25.364Z,77.60
2017-09-06T07:28:26.288Z,76.70
2017-09-06T07:30:27.245Z,76.90
2017-09-06T07:32:28.164Z,75.90
2017-09-06T07:34:29.142Z,77.60
2017-09-06T07:36:30.072Z,78.00
2017-09-06T07:38:30.996Z,77.50
2017-09-06T07:40:31.935Z,76.80
2017-09-06T07:42:32.885Z,78.10
2017-09-06T07:44:33.812Z,78.60
2017-09-06T07:46:34.738Z,79.20
2017-09-06T07:48:35.703Z,80.10
2017-09-06T07:50:36.633Z,79.80
2017-09-06T07:52:37.577Z,80.00
2017-09-06T07:54:38.501Z,80.90
2017-09-06T07:56:39.445Z,81.60
2017-09-06T07:58:40.405Z,80.60
2017-09-06T08:00:41.345Z,81.00
2017-09-06T08:02:42.284Z,81.60
2017-09-06T08:04:43.213Z,82.20
2017-09-06T08:06:44.162Z,81.20
2017-09-06T08:08:45.102Z,81.50
2017-09-06T08:10:46.036Z,81.60
2017-09-06T08:12:46.984Z,82.00
2017-09-06T08:14:47.950Z,82.00
2017-09-06T08:16:48.885Z,84.40
2017-09-06T08:18:49.822Z,83.50
2017-09-06T08:20:50.760Z,82.50
2017-09-06T08:22:51.688Z,80.70
2017-09-06T08:24:52.628Z,80.00
2017-09-06T08:26:53.578Z,81.10
2017-09-06T08:28:54.512Z,81.80
2017-09-06T08:30:55.436Z,80.70
2017-09-06T08:32:56.367Z,79.60
2017-09-06T08:34:57.302Z,82.10
2017-09-06T08:36:58.228Z,81.20
2017-09-06T08:38:59.323Z,81.60
2017-09-06T08:41:00.260Z,79.20
2017-09-06T08:43:01.192Z,79.60
2017-09-06T08:45:02.132Z,79.10
2017-09-06T08:47:03.054Z,78.10
2017-09-06T08:49:03.981Z,77.40
2017-09-06T08:51:04.915Z,77.40
2017-09-06T08:53:05.849Z,77.50
2017-09-06T08:55:06.801Z,77.50
2017-09-06T08:57:07.753Z,76.80
2017-09-06T08:59:08.701Z,76.10
2017-09-06T09:01:09.653Z,78.30
2017-09-06T09:03:10.589Z,78.50
2017-09-06T09:05:11.528Z,78.80
2017-09-06T09:07:12.464Z,77.80
2017-09-06T09:09:13.401Z,77.50
2017-09-06T09:11:14.403Z,76.70
2017-09-06T09:13:15.333Z,77.60
2017-09-06T09:15:16.288Z,77.60
2017-09-06T09:17:17.225Z,76.80
2017-09-06T09:19:18.159Z,78.30
2017-09-06T09:21:19.103Z,77.60
2017-09-06T09:23:20.039Z,78.10
2017-09-06T09:25:20.980Z,77.30
2017-09-06T09:27:21.913Z,76.20
2017-09-06T09:29:22.849Z,75.50
2017-09-06T09:31:23.783Z,77.40
2017-09-06T09:33:24.716Z,77.30
2017-09-06T09:35:25.641Z,77.20
2017-09-06T09:37:26.571Z,78.80
2017-09-06T09:39:27.496Z,77.60
2017-09-06T09:41:35.380Z,79.20
2017-09-06T09:43:36.299Z,79.20
2017-09-06T09:45:37.221Z,79.00
2017-09-06T09:47:38.154Z,79.60
2017-09-06T09:49:39.085Z,75.50
2017-09-06T09:51:40.031Z,78.30
2017-09-06T09:53:40.965Z,78.20
2017-09-06T09:55:41.884Z,78.00
2017-09-06T09:57:42.815Z,78.90
2017-09-06T09:59:43.739Z,79.20
2017-09-06T10:01:44.676Z,79.40
2017-09-06T10:03:45.616Z,79.30
2017-09-06T10:05:46.628Z,82.20
2017-09-06T10:07:47.566Z,81.80
2017-09-06T10:09:48.491Z,83.30
2017-09-06T10:11:49.417Z,81.60
2017-09-06T10:13:50.344Z,82.50
2017-09-06T10:15:51.281Z,83.30
2017-09-06T10:17:52.216Z,86.30
2017-09-06T10:19:53.135Z,84.60
2017-09-06T10:21:54.084Z,81.70
2017-09-06T10:23:55.015Z,83.30
2017-09-06T10:25:55.941Z,81.80
2017-09-06T10:27:56.879Z,82.30
2017-09-06T10:29:57.804Z,82.90
2017-09-06T10:31:58.730Z,81.60
2017-09-06T10:33:59.670Z,81.40
2017-09-06T10:36:00.604Z,83.30
2017-09-06T10:38:01.545Z,83.10
2017-09-06T10:40:02.482Z,81.40
2017-09-06T10:42:03.411Z,81.60
2017-09-06T10:44:04.341Z,81.00
2017-09-06T10:46:05.282Z,80.30
2017-09-06T10:48:06.233Z,80.70
2017-09-06T10:50:07.163Z,81.90
2017-09-06T10:52:08.089Z,78.50
2017-09-06T10:54:09.040Z,79.70
2017-09-06T10:56:09.968Z,79.40
2017-09-06T10:58:10.929Z,79.30
2017-09-06T11:00:12.160Z,76.80
2017-09-06T11:02:13.086Z,77.50
2017-09-06T11:04:14.021Z,78.00
2017-09-06T11:06:14.945Z,77.50
2017-09-06T11:08:15.872Z,77.50
2017-09-06T11:10:16.796Z,77.50
2017-09-06T11:12:17.731Z,78.80
2017-09-06T11:14:18.686Z,77.70
2017-09-06T11:16:19.624Z,78.00
2017-09-06T11:18:20.568Z,77.60
2017-09-06T11:20:21.507Z,76.70
2017-09-06T11:22:22.440Z,77.10
2017-09-06T11:24:23.395Z,76.50
2017-09-06T11:26:24.323Z,75.60
2017-09-06T11:28:25.253Z,76.60
2017-09-06T11:30:26.205Z,75.00
2017-09-06T11:32:27.135Z,77.00
2017-09-06T11:34:28.064Z,75.80
2017-09-06T11:36:29.005Z,75.10
2017-09-06T11:38:29.925Z,73.80
2017-09-06T11:40:30.852Z,73.20
2017-09-06T11:42:31.786Z,74.30
2017-09-06T11:44:32.720Z,71.20
2017-09-06T11:46:33.660Z,69.40
2017-09-06T11:48:34.580Z,70.00
2017-09-06T11:50:35.520Z,69.10
2017-09-06T11:52:36.452Z,69.10
2017-09-06T11:54:37.379Z,67.20
2017-09-06T11:56:38.324Z,67.20
2017-09-06T11:58:39.247Z,67.00
2017-09-06T12:00:40.189Z,69.50
2017-09-06T12:02:41.243Z,68.40
2017-09-06T12:04:42.184Z,67.90
2017-09-06T12:06:43.119Z,67.50
2017-09-06T12:08:44.052Z,67.70
2017-09-06T12:10:44.986Z,67.70
2017-09-06T12:12:45.928Z,69.00
2017-09-06T12:14:46.853Z,68.40
2017-09-06T12:16:47.800Z,67.90
2017-09-06T12:18:48.727Z,67.80
2017-09-06T12:20:49.664Z,66.90
2017-09-06T12:22:50.647Z,65.30
2017-09-06T12:24:51.580Z,64.70
2017-09-06T12:26:52.531Z,66.10
2017-09-06T12:28:53.461Z,67.30
2017-09-06T12:30:54.401Z,67.40
2017-09-06T12:32:55.340Z,66.10
2017-09-06T12:34:56.393Z,65.60
2017-09-06T12:36:57.320Z,64.70
2017-09-06T12:38:58.261Z,65.00
2017-09-06T12:40:59.205Z,65.10
2017-09-06T12:43:00.136Z,66.20
2017-09-06T12:45:01.070Z,65.20
2017-09-06T12:47:01.991Z,62.00
2017-09-06T12:49:02.927Z,59.80
2017-09-06T12:51:03.855Z,59.00
2017-09-06T12:53:04.799Z,59.50
2017-09-06T12:55:05.765Z,57.60
2017-09-06T12:57:06.688Z,56.90
2017-09-06T12:59:07.622Z,58.20
2017-09-06T13:01:08.539Z,58.60
2017-09-06T13:03:09.472Z,58.20
2017-09-06T13:05:10.403Z,59.80
2017-09-06T13:07:11.345Z,59.30
2017-09-06T13:09:12.290Z,59.70
2017-09-06T13:11:13.219Z,59.30
2017-09-06T13:13:14.155Z,59.90
2017-09-06T13:15:15.088Z,59.30
2017-09-06T13:17:16.021Z,59.10
2017-09-06T13:19:16.975Z,58.90
2017-09-06T13:21:17.917Z,58.20
2017-09-06T13:23:18.865Z,58.30
2017-09-06T13:25:19.813Z,58.00
2017-09-06T13:27:20.746Z,56.90
2017-09-06T13:29:21.689Z,56.50
2017-09-06T13:31:22.627Z,56.50
2017-09-06T13:33:23.556Z,57.70
2017-09-06T13:35:24.502Z,57.90
2017-09-06T13:37:25.426Z,57.80
2017-09-06T13:39:26.359Z,59.30
2017-09-06T13:41:27.296Z,57.80
2017-09-06T13:43:28.225Z,59.40
2017-09-06T13:45:29.157Z,59.10
2017-09-06T13:47:30.100Z,58.70
2017-09-06T13:49:31.045Z,57.10
2017-09-06T13:51:31.977Z,57.40
2017-09-06T13:53:32.918Z,57.10
2017-09-06T13:55:33.840Z,56.30
2017-09-06T13:57:34.780Z,56.60
2017-09-06T13:59:35.712Z,56.20
2017-09-06T14:01:36.658Z,57.70
2017-09-06T14:03:37.582Z,57.30
2017-09-06T14:05:38.521Z,57.50
2017-09-06T14:07:39.460Z,57.30
2017-09-06T14:09:40.384Z,57.60
2017-09-06T14:11:41.349Z,57.30
2017-09-06T14:13:42.287Z,58.50
2017-09-06T14:15:43.238Z,58.20
2017-09-06T14:17:44.179Z,56.70
2017-09-06T14:19:45.119Z,57.20
2017-09-06T14:21:46.080Z,56.50
2017-09-06T14:23:47.018Z,57.00
2017-09-06T14:25:47.949Z,56.90
2017-09-06T14:27:48.989Z,58.50
2017-09-06T14:29:49.943Z,57.60
2017-09-06T14:31:50.880Z,57.70
2017-09-06T14:33:51.815Z,58.40
2017-09-06T14:35:52.755Z,59.10
2017-09-06T14:37:53.696Z,58.90
2017-09-06T14:39:54.632Z,58.90
2017-09-06T14:41:55.575Z,59.10
2017-09-06T14:43:56.516Z,58.90
2017-09-06T14:45:57.453Z,59.00
2017-09-06T14:47:58.388Z,59.60
2017-09-06T14:49:59.311Z,58.80
2017-09-06T14:52:00.253Z,59.00
2017-09-06T14:54:01.184Z,58.70
2017-09-06T14:56:02.119Z,58.00
2017-09-06T14:58:03.048Z,59.20
2017-09-06T15:00:04.255Z,58.70
2017-09-06T15:02:05.323Z,57.70
2017-09-06T15:04:06.265Z,59.10
2017-09-06T15:06:07.207Z,57.00
2017-09-06T15:08:08.141Z,57.80
2017-09-06T15:10:09.071Z,57.10
2017-09-06T15:12:10.006Z,57.50
2017-09-06T15:14:10.969Z,56.40
2017-09-06T15:16:11.900Z,56.50
2017-09-06T15:18:12.832Z,56.50
2017-09-06T15:20:13.780Z,56.90
2017-09-06T15:22:14.712Z,57.30
2017-09-06T15:24:15.737Z,57.50
2017-09-06T15:26:16.673Z,58.30
2017-09-06T15:28:17.603Z,58.30
2017-09-06T15:30:18.544Z,58.20
2017-09-06T15:32:19.488Z,58.30
2017-09-06T15:34:20.437Z,58.30
2017-09-06T15:36:21.393Z,58.60
2017-09-06T15:38:22.342Z,58.30
2017-09-06T15:40:23.294Z,59.50
2017-09-06T15:42:24.219Z,61.20
2017-09-06T15:44:25.144Z,66.20
2017-09-06T15:46:26.093Z,70.10
2017-09-06T15:48:27.017Z,70.30
2017-09-06T15:50:27.965Z,71.60
2017-09-06T15:52:28.888Z,73.40
2017-09-06T15:54:29.828Z,74.00
2017-09-06T15:56:30.759Z,73.00
2017-09-06T15:58:31.692Z,73.40
2017-09-06T16:00:32.659Z,73.40
2017-09-06T16:02:34.508Z,73.30
2017-09-06T16:04:35.433Z,72.70
2017-09-06T16:06:36.459Z,73.00
2017-09-06T16:08:37.396Z,73.00
2017-09-06T16:10:39.083Z,72.10
2017-09-06T16:12:40.020Z,72.00
2017-09-06T16:14:40.950Z,70.00
2017-09-06T16:16:41.889Z,71.40
2017-09-06T16:18:42.823Z,72.90
2017-09-06T16:20:43.749Z,72.00
2017-09-06T16:22:44.695Z,72.40
2017-09-06T16:24:45.637Z,72.20
2017-09-06T16:26:46.612Z,71.10
2017-09-06T16:28:47.528Z,70.50
2017-09-06T16:30:48.464Z,70.80
2017-09-06T16:32:49.436Z,70.40
2017-09-06T16:34:50.336Z,70.40
2017-09-06T16:36:51.292Z,70.50
2017-09-06T16:38:52.236Z,70.00
2017-09-06T16:40:53.172Z,70.60
2017-09-06T16:42:54.119Z,69.60
2017-09-06T16:44:55.049Z,70.80
2017-09-06T16:46:56.002Z,71.00
2017-09-06T16:48:56.937Z,71.30
2017-09-06T16:50:57.873Z,71.40
2017-09-06T16:52:58.817Z,70.70
2017-09-06T16:54:59.737Z,71.60
2017-09-06T16:57:00.679Z,71.10
2017-09-06T16:59:01.608Z,70.90
2017-09-06T17:01:02.552Z,71.90
2017-09-06T17:03:03.511Z,71.10
2017-09-06T17:05:04.424Z,71.20
2017-09-06T17:07:05.360Z,71.30
2017-09-06T17:09:06.299Z,72.20
2017-09-06T17:11:07.250Z,71.10
2017-09-06T17:13:08.208Z,71.20
2017-09-06T17:15:09.139Z,71.30
2017-09-06T17:17:10.124Z,70.80
2017-09-06T17:19:11.062Z,71.10
2017-09-06T17:21:12.022Z,70.00
2017-09-06T17:23:12.988Z,70.00
2017-09-06T17:25:13.920Z,68.90
2017-09-06T17:27:14.850Z,69.00
2017-09-06T17:29:15.789Z,69.10
2017-09-06T17:31:16.725Z,68.20
2017-09-06T17:33:17.676Z,68.30
2017-09-06T17:35:18.613Z,68.10
2017-09-06T17:37:19.545Z,67.50
2017-09-06T17:39:20.493Z,67.50
2017-09-06T17:41:21.424Z,68.10
2017-09-06T17:43:22.381Z,67.50
2017-09-06T17:45:24.059Z,67.20
2017-09-06T17:47:25.013Z,67.20
2017-09-06T17:49:26.268Z,67.40
2017-09-06T17:51:27.231Z,67.80
2017-09-06T17:53:28.168Z,68.10
2017-09-06T17:55:29.132Z,67.20
2017-09-06T17:57:30.056Z,68.00
2017-09-06T17:59:31.353Z,67.70
2017-09-06T18:01:32.281Z,67.90
2017-09-06T18:03:33.244Z,67.10
2017-09-06T18:05:34.200Z,67.70
2017-09-06T18:07:35.147Z,67.10
2017-09-06T18:09:36.217Z,67.60
2017-09-06T18:11:37.156Z,67.70
2017-09-06T18:13:38.100Z,68.00
2017-09-06T18:15:39.040Z,67.60
2017-09-06T18:17:39.993Z,67.50
2017-09-06T18:19:40.965Z,67.50
2017-09-06T18:21:41.917Z,67.20
2017-09-06T18:23:42.867Z,66.40
2017-09-06T18:25:43.865Z,66.60
2017-09-06T18:27:44.806Z,66.60
2017-09-06T18:29:45.740Z,67.20
2017-09-06T18:31:46.677Z,67.30
2017-09-06T18:33:47.611Z,67.30
2017-09-06T18:35:48.539Z,67.30
2017-09-06T18:37:49.476Z,67.40
2017-09-06T18:39:50.419Z,67.40
2017-09-06T18:41:51.439Z,67.80
2017-09-06T18:43:52.437Z,67.80
2017-09-06T18:45:53.367Z,68.10
2017-09-06T18:47:54.338Z,68.00
2017-09-06T18:49:55.352Z,67.70
2017-09-06T18:51:56.327Z,68.30
2017-09-06T18:53:57.273Z,69.00
2017-09-06T18:55:58.250Z,68.50
2017-09-06T18:57:59.499Z,68.70
2017-09-06T19:00:00.423Z,68.60
2017-09-06T19:02:01.452Z,69.30
2017-09-06T19:04:02.408Z,69.20
2017-09-06T19:06:03.351Z,68.80
2017-09-06T19:08:04.288Z,69.20
2017-09-06T19:10:05.284Z,69.20
2017-09-06T19:12:06.254Z,69.10
2017-09-06T19:14:07.211Z,69.50
2017-09-06T19:16:08.153Z,70.00
2017-09-06T19:18:09.200Z,69.50
2017-09-06T19:20:10.251Z,69.50
2017-09-06T19:22:11.197Z,69.40
2017-09-06T19:24:12.151Z,69.90
2017-09-06T19:26:13.108Z,69.00
2017-09-06T19:28:14.040Z,69.90
2017-09-06T19:30:14.985Z,70.30
2017-09-06T19:32:15.916Z,70.00
2017-09-06T19:34:16.867Z,69.80
2017-09-06T19:36:17.791Z,70.40
2017-09-06T19:38:18.723Z,70.60
2017-09-06T19:40:19.675Z,71.20
2017-09-06T19:42:20.616Z,70.30
2017-09-06T19:44:21.668Z,71.10
2017-09-06T19:46:22.608Z,71.20
2017-09-06T19:48:23.556Z,71.20
2017-09-06T19:50:24.629Z,71.30
2017-09-06T19:54:33.377Z,70.90
2017-09-06T19:56:34.312Z,71.40
2017-09-06T19:58:35.262Z,71.30
2017-09-06T20:00:36.288Z,71.60
2017-09-06T20:02:37.221Z,71.20
2017-09-06T20:04:38.295Z,71.00
2017-09-06T20:06:39.277Z,71.40
2017-09-06T20:08:40.214Z,71.60
2017-09-06T20:10:41.147Z,71.70
2017-09-06T20:12:42.088Z,72.10
2017-09-06T20:14:43.016Z,72.30
2017-09-06T20:16:43.971Z,72.00
2017-09-06T20:18:44.908Z,72.10
2017-09-06T20:20:45.924Z,72.40
2017-09-06T20:22:46.882Z,72.20
2017-09-06T20:24:47.829Z,71.90
2017-09-06T20:26:49.596Z,72.40
2017-09-06T20:28:50.713Z,72.10
2017-09-06T20:30:51.835Z,72.70
2017-09-06T20:32:52.947Z,73.20
2017-09-06T20:34:53.891Z,73.00
2017-09-06T20:36:54.865Z,72.80
2017-09-06T20:38:55.812Z,72.60
2017-09-06T20:40:56.885Z,73.10
2017-09-06T20:42:57.879Z,72.90
2017-09-06T20:44:58.879Z,72.70
2017-09-06T20:46:59.825Z,73.10
2017-09-06T20:49:01.274Z,73.40
2017-09-06T20:51:03.359Z,72.70
2017-09-06T20:53:05.109Z,73.20
2017-09-06T20:55:06.254Z,72.80
2017-09-06T20:57:08.004Z,72.70
2017-09-06T20:59:09.039Z,72.40
2017-09-06T21:01:10.700Z,72.60
2017-09-06T21:03:11.666Z,72.50
2017-09-06T21:05:12.786Z,72.50
2017-09-06T21:07:14.045Z,72.70
2017-09-06T21:09:15.309Z,72.60
2017-09-06T21:11:16.371Z,72.90
2017-09-06T21:13:17.363Z,73.40
2017-09-06T21:15:18.304Z,73.40
2017-09-06T21:17:19.388Z,73.00
2017-09-06T21:19:20.377Z,72.80
2017-09-06T21:21:21.303Z,72.90
2017-09-06T21:23:22.295Z,73.20
2017-09-06T21:25:23.456Z,72.40
2017-09-06T21:27:24.479Z,72.80
2017-09-06T21:29:25.435Z,72.20
2017-09-06T21:31:26.376Z,72.10
2017-09-06T21:33:27.623Z,72.30
2017-09-06T21:35:28.864Z,72.70
2017-09-06T21:37:29.797Z,72.50
2017-09-06T21:39:30.928Z,72.50
2017-09-06T21:41:31.897Z,72.10
2017-09-06T21:43:39.967Z,73.60
2017-09-06T21:45:40.932Z,71.80
2017-09-06T21:47:41.871Z,72.20
2017-09-06T21:49:42.808Z,71.70
2017-09-06T21:51:43.747Z,72.00
2017-09-06T21:53:44.708Z,72.00
2017-09-06T21:55:45.669Z,71.80
2017-09-06T21:57:46.623Z,71.30
2017-09-06T21:59:47.559Z,71.40
2017-09-06T22:01:48.526Z,72.00
2017-09-06T22:03:49.485Z,71.10
2017-09-06T22:05:50.416Z,71.70
2017-09-06T22:07:51.406Z,71.70
2017-09-06T22:09:52.340Z,71.70
2017-09-06T22:11:53.289Z,73.20
2017-09-06T22:13:54.259Z,73.70
2017-09-06T22:15:55.204Z,73.70
2017-09-06T22:18:26.776Z,74.20
2017-09-06T22:20:27.716Z,72.50
2017-09-06T22:22:28.672Z,74.80
2017-09-06T22:24:29.621Z,74.20
2017-09-06T22:26:30.560Z,73.70
2017-09-06T22:28:31.495Z,74.40
2017-09-06T22:30:32.423Z,73.90
2017-09-06T22:32:33.366Z,74.20
2017-09-06T22:34:34.295Z,74.30
2017-09-06T22:36:35.239Z,74.90
2017-09-06T22:38:36.171Z,74.60
2017-09-06T22:40:37.379Z,75.60
2017-09-06T22:42:39.068Z,75.10
2017-09-06T22:44:39.998Z,75.00
2017-09-06T22:46:40.927Z,75.90
2017-09-06T22:48:41.887Z,75.10
2017-09-06T22:50:42.820Z,76.10
2017-09-06T22:52:43.753Z,75.30
2017-09-06T22:54:44.721Z,76.40
2017-09-06T22:56:45.682Z,76.00
2017-09-06T22:58:47.367Z,75.50
2017-09-06T23:00:48.307Z,75.50
2017-09-06T23:02:49.251Z,75.20
2017-09-06T23:04:50.200Z,76.00
2017-09-06T23:06:51.119Z,76.30
2017-09-06T23:08:52.059Z,76.30
2017-09-06T23:10:53.008Z,76.30
2017-09-06T23:12:53.943Z,77.00
2017-09-06T23:14:54.895Z,75.80
2017-09-06T23:16:56.001Z,76.30
2017-09-06T23:18:56.971Z,76.20
2017-09-06T23:20:57.923Z,76.20
2017-09-06T23:22:59.614Z,77.10
2017-09-06T23:25:00.552Z,77.00
2017-09-06T23:27:01.508Z,76.60
2017-09-06T23:29:02.463Z,77.60
2017-09-06T23:31:03.419Z,76.10
2017-09-06T23:33:05.109Z,77.10
2017-09-06T23:35:06.059Z,77.30
2017-09-06T23:37:06.985Z,77.50
2017-09-06T23:39:07.920Z,77.30
2017-09-06T23:41:08.868Z,76.90
2017-09-06T23:43:09.804Z,77.40
2017-09-06T23:45:10.753Z,77.70
2017-09-06T23:47:11.701Z,77.40
2017-09-06T23:49:12.648Z,77.50
2017-09-06T23:51:14.339Z,77.50
2017-09-06T23:53:15.288Z,77.50
2017-09-06T23:55:16.232Z,77.90
2017-09-06T23:57:17.201Z,77.90
2017-09-06T23:59:18.888Z,77.90
